Antis, Pennsylvania
Current Conditions -  °F | °C
As of 6:53 PM on Monday 20 Oct 2014 (Local Time) from KAOO Reporting Station
Overcast Overcast  
Wind Chill: 10°   Ceiling: 7500
Heat Index: 10°   Visibility: 10mi
Dew Point:   Wind: 0mph
Humidity: 77%   Direction: NA
Pressure: 29.92"   Gusts: NA
Location:  40.6274°N, 78.3392°W
Report Text: KAOO 202253Z AUTO 00000KT 10SM OVC075 10/06 A2992 RMK AO2 SLP137 T01000061
Loading
Personal Weather Stations






























Interactive Weather Map
Tropical Storm Tracking
New forecast layout! Learn more

10-Day Weather Forecast

Advertisements
Track Severe Weather on mobile